Airfield :
LOGIN :

Register | Disclaimer

   EN    FR    IT 

 










Legend :    VFR   Marginal VFR   IFR   Intensive IFR   Very Intensive IFR
Visi :
Ceiling :
>= 8 km
>= 3000ft
5 to 8 km
1000 to 3000 ft
1500m to 5 km
500 to 1000 ft
800 to 1500m
200 to 500 ft
< 800m
< 200 ft
Symbols :   Thunderstorms  Fog  Heavy snow  Heavy precipitations  Wind > 20 kt
SIGMETs :     Misc.  Thunderstorms  Icing  Turbulence  Mountain Waves  Volcanic Ashes






- Airport Elevation : 171 ft
- IATA code : EGC


LFBE - Bergerac

CURRENT METAR :
  • 110030Z AUTO 08005KT CAVOK 03/03 Q1020

EXPIRED METARs :
  • 110000Z AUTO 06004KT CAVOK 03/03 Q1021
  • 102330Z AUTO 06004KT CAVOK 03/03 Q1021
  • 102300Z AUTO 06003KT CAVOK 03/02 Q1021
  • 102230Z AUTO 07004KT 9000 NSC 02/02 Q1021
  • 102200Z AUTO 06004KT CAVOK 03/03 Q1022

TAF AMD TAF LFBE
Valid from the 10 at 19:00 until the 11 at 18:00 UTC


101910Z 1019/1118 10005KT CAVOK
TEMPO 1019/1024 3000 BR
BECMG 1106/1108 28005KT OVC030
TEMPO 1108/1114 4000 -RA BKN010 OVC020
TEMPO 1115/1118 27020G30KT 4000 SHRA FEW020CB SCT030TCU



MET'MAP, your aeronautical weather chart ! - Copyright ORBIFLY December 2007 - Disclaimer

ORBIFLY MET'MAP TEAM :

Programming & Development : Alexandra Zaïnal
Concept & original design : Baudouin d'Aumeries
Assistance for programming : Marc-Olivier Méhu
Technical & hardware support : Manuel Goepfert

Contact : metmap@orbifly.com




SOURCES & CREDITS :

   NOAA